createdAt,value
2022-11-16T00:00:37.264Z,23.38
2022-11-16T00:03:04.934Z,23.32
2022-11-16T00:05:32.081Z,23.31
2022-11-16T00:07:59.203Z,23.26
2022-11-16T00:10:26.311Z,23.21
2022-11-16T00:12:53.415Z,23.19
2022-11-16T00:15:20.568Z,23.15
2022-11-16T00:17:49.048Z,23.13
2022-11-16T00:20:16.433Z,23.12
2022-11-16T00:22:43.716Z,23.14
2022-11-16T00:25:10.817Z,23.12
2022-11-16T00:27:37.917Z,23.15
2022-11-16T00:30:06.269Z,23.09
2022-11-16T00:32:33.396Z,23.05
2022-11-16T00:35:01.863Z,23.09
2022-11-16T00:37:28.974Z,23.17
2022-11-16T00:39:56.083Z,23.16
2022-11-16T00:42:23.209Z,23.15
2022-11-16T00:44:50.343Z,23.24
2022-11-16T00:47:17.457Z,23.25
2022-11-16T00:49:44.552Z,23.28
2022-11-16T00:52:13.046Z,23.28
2022-11-16T00:54:40.148Z,23.25
2022-11-16T00:57:07.247Z,23.23
2022-11-16T00:59:34.379Z,23.14
2022-11-16T01:02:01.483Z,23.10
2022-11-16T01:04:28.800Z,23.09
2022-11-16T01:06:55.994Z,23.06
2022-11-16T01:09:24.662Z,23.06
2022-11-16T01:11:51.763Z,23.03
2022-11-16T01:14:18.977Z,23.04
2022-11-16T01:16:48.982Z,23.03
2022-11-16T01:19:16.228Z,23.04
2022-11-16T01:21:43.339Z,23.06
2022-11-16T01:24:10.455Z,23.02
2022-11-16T01:26:38.939Z,23.02
2022-11-16T01:29:06.227Z,23.07
2022-11-16T01:31:33.382Z,23.10
2022-11-16T01:34:00.484Z,23.11
2022-11-16T01:36:27.812Z,23.16
2022-11-16T01:38:54.905Z,23.17
2022-11-16T01:41:24.454Z,23.10
2022-11-16T01:43:56.090Z,23.08
2022-11-16T01:46:24.178Z,23.20
2022-11-16T01:48:57.110Z,23.05
2022-11-16T01:51:25.484Z,23.13
2022-11-16T01:53:52.675Z,23.11
2022-11-16T01:56:21.072Z,23.06
2022-11-16T01:58:49.626Z,23.04
2022-11-16T02:01:18.194Z,23.00
2022-11-16T02:03:45.401Z,23.04
2022-11-16T02:06:45.622Z,22.97
2022-11-16T02:09:28.381Z,22.94
2022-11-16T02:12:14.841Z,22.92
2022-11-16T02:14:59.436Z,22.89
2022-11-16T02:17:36.570Z,22.90
2022-11-16T02:20:25.807Z,22.92
2022-11-16T02:23:22.107Z,22.96
2022-11-16T02:26:00.614Z,23.06
2022-11-16T02:28:37.722Z,23.08
2022-11-16T02:31:11.146Z,23.11
2022-11-16T02:33:41.035Z,23.13
2022-11-16T02:36:13.166Z,23.15
2022-11-16T02:38:46.413Z,23.15
2022-11-16T02:41:18.082Z,23.07
2022-11-16T02:43:48.933Z,23.05
2022-11-16T02:46:21.452Z,23.00
2022-11-16T02:48:53.079Z,22.98
2022-11-16T02:51:22.677Z,22.94
2022-11-16T02:54:01.025Z,22.94
2022-11-16T02:56:28.734Z,22.87
2022-11-16T02:58:57.634Z,22.89
2022-11-16T03:01:32.570Z,22.90
2022-11-16T03:04:03.305Z,22.88
2022-11-16T03:06:33.084Z,22.84
2022-11-16T03:09:04.517Z,22.74
2022-11-16T03:11:35.104Z,22.84
2022-11-16T03:14:06.936Z,22.86
2022-11-16T03:16:38.761Z,22.94
2022-11-16T03:19:10.393Z,22.96
2022-11-16T03:21:41.455Z,22.97
2022-11-16T03:24:08.780Z,23.02
2022-11-16T03:26:46.244Z,23.07
2022-11-16T03:29:20.560Z,23.09
2022-11-16T03:31:52.374Z,23.07
2022-11-16T03:34:25.567Z,23.00
2022-11-16T03:36:53.870Z,22.91
2022-11-16T03:39:25.539Z,22.92
2022-11-16T03:41:54.624Z,22.93
2022-11-16T03:44:22.325Z,22.94
2022-11-16T03:46:50.874Z,22.82
2022-11-16T03:49:21.044Z,22.89
2022-11-16T03:51:48.709Z,22.87
2022-11-16T03:54:16.171Z,22.86
2022-11-16T03:56:43.340Z,22.79
2022-11-16T03:59:10.473Z,22.80
2022-11-16T04:01:41.847Z,22.76
2022-11-16T04:04:13.055Z,22.72
2022-11-16T04:06:40.081Z,22.76
2022-11-16T04:09:09.206Z,22.85
2022-11-16T04:11:37.023Z,22.84
2022-11-16T04:14:08.917Z,22.94
2022-11-16T04:16:36.487Z,22.98
2022-11-16T04:19:03.658Z,22.68
2022-11-16T04:21:35.696Z,23.07
2022-11-16T04:24:02.964Z,23.07
2022-11-16T04:26:30.216Z,22.97
2022-11-16T04:28:57.337Z,22.92
2022-11-16T04:31:24.603Z,22.87
2022-11-16T04:33:52.722Z,22.84
2022-11-16T04:36:20.835Z,22.83
2022-11-16T04:38:49.426Z,22.81
2022-11-16T04:41:16.534Z,22.82
2022-11-16T04:43:43.633Z,22.82
2022-11-16T04:46:10.746Z,22.80
2022-11-16T04:48:37.845Z,22.79
2022-11-16T04:51:05.161Z,22.76
2022-11-16T04:53:32.278Z,22.75
2022-11-16T04:56:01.191Z,22.70
2022-11-16T04:58:28.336Z,22.74
2022-11-16T05:00:55.534Z,22.79
2022-11-16T05:03:22.642Z,22.92
2022-11-16T05:05:50.086Z,22.94
2022-11-16T05:08:17.216Z,22.91
2022-11-16T05:10:44.310Z,22.97
2022-11-16T05:13:12.763Z,23.03
2022-11-16T05:15:40.123Z,22.93
2022-11-16T05:18:07.219Z,22.98
2022-11-16T05:20:34.338Z,22.98
2022-11-16T05:23:01.482Z,23.14
2022-11-16T05:25:33.814Z,23.14
2022-11-16T05:28:03.526Z,23.22
2022-11-16T05:30:31.981Z,23.37
2022-11-16T05:32:59.101Z,23.26
2022-11-16T05:35:26.239Z,23.24
2022-11-16T05:37:53.378Z,23.13
2022-11-16T05:40:20.478Z,23.09
2022-11-16T05:42:47.727Z,23.14
2022-11-16T05:45:20.730Z,23.20
2022-11-16T05:47:49.573Z,23.16
2022-11-16T05:50:16.865Z,23.15
2022-11-16T05:52:43.977Z,23.19
2022-11-16T05:55:11.127Z,23.17
2022-11-16T05:57:38.221Z,23.16
2022-11-16T06:00:06.542Z,23.16
2022-11-16T06:02:33.647Z,23.14
2022-11-16T06:05:02.169Z,23.12
2022-11-16T06:07:29.320Z,23.14
2022-11-16T06:09:56.503Z,23.24
2022-11-16T06:12:23.619Z,23.19
2022-11-16T06:14:50.749Z,23.18
2022-11-16T06:17:18.023Z,23.23
2022-11-16T06:19:45.140Z,23.15
2022-11-16T06:22:13.614Z,23.14
2022-11-16T06:24:42.165Z,23.13
2022-11-16T06:27:09.258Z,23.11
2022-11-16T06:29:36.363Z,23.03
2022-11-16T06:32:03.665Z,23.04
2022-11-16T06:34:30.776Z,23.09
2022-11-16T06:36:57.878Z,23.11
2022-11-16T06:39:26.358Z,23.09
2022-11-16T06:41:53.456Z,23.07
2022-11-16T06:44:20.599Z,23.02
2022-11-16T06:46:47.712Z,23.13
2022-11-16T06:49:14.817Z,23.15
2022-11-16T06:51:41.929Z,23.17
2022-11-16T06:54:09.167Z,23.19
2022-11-16T06:56:37.666Z,23.22
2022-11-16T06:59:04.801Z,23.19
2022-11-16T07:01:31.974Z,23.19
2022-11-16T07:03:59.128Z,23.16
2022-11-16T07:06:26.241Z,23.16
2022-11-16T07:08:53.447Z,23.14
2022-11-16T07:11:20.567Z,23.19
2022-11-16T07:13:49.022Z,23.21
2022-11-16T07:16:16.147Z,23.18
2022-11-16T07:18:43.256Z,23.16
2022-11-16T07:21:12.937Z,23.12
2022-11-16T07:23:40.594Z,23.10
2022-11-16T07:26:09.044Z,23.02
2022-11-16T07:28:36.877Z,23.09
2022-11-16T07:31:07.610Z,23.08
2022-11-16T07:33:35.167Z,23.09
2022-11-16T07:36:02.807Z,23.11
2022-11-16T07:38:31.680Z,23.14
2022-11-16T07:41:02.123Z,23.19
2022-11-16T07:43:29.706Z,23.10
2022-11-16T07:46:00.351Z,23.15
2022-11-16T07:48:42.559Z,23.19
2022-11-16T07:51:11.724Z,23.17
2022-11-16T07:53:39.626Z,23.14
2022-11-16T07:56:08.027Z,23.17
2022-11-16T07:58:36.382Z,23.12
2022-11-16T08:01:04.392Z,23.13
2022-11-16T08:03:31.700Z,23.04
2022-11-16T08:06:02.153Z,23.10
2022-11-16T08:08:29.539Z,23.04
2022-11-16T08:10:59.618Z,22.97
2022-11-16T08:13:27.077Z,23.07
2022-11-16T08:15:54.215Z,23.11
2022-11-16T08:18:21.320Z,23.00
2022-11-16T08:20:48.422Z,23.05
2022-11-16T08:23:16.879Z,23.07
2022-11-16T08:25:43.993Z,23.05
2022-11-16T08:28:11.193Z,23.15
2022-11-16T08:30:38.844Z,23.17
2022-11-16T08:33:06.006Z,23.04
2022-11-16T08:35:33.726Z,23.08
2022-11-16T08:38:00.835Z,23.10
2022-11-16T08:40:29.414Z,23.14
2022-11-16T08:42:56.518Z,23.15
2022-11-16T08:45:23.933Z,23.13
2022-11-16T08:47:53.685Z,23.13
2022-11-16T08:50:33.486Z,23.16
2022-11-16T08:53:06.918Z,23.13
2022-11-16T08:55:35.445Z,23.10
2022-11-16T08:58:02.566Z,23.11
2022-11-16T09:00:29.682Z,23.08
2022-11-16T09:02:56.830Z,23.04
2022-11-16T09:05:23.964Z,23.03
2022-11-16T09:07:51.069Z,22.96
2022-11-16T09:10:18.266Z,23.03
2022-11-16T09:12:46.726Z,23.03
2022-11-16T09:15:13.822Z,22.98
2022-11-16T09:17:40.944Z,23.04
2022-11-16T09:20:08.938Z,23.09
2022-11-16T09:22:36.084Z,23.11
2022-11-16T09:25:03.791Z,23.01
2022-11-16T09:27:30.910Z,23.05
2022-11-16T09:29:59.360Z,23.05
2022-11-16T09:32:26.605Z,23.05
2022-11-16T09:34:53.712Z,23.04
2022-11-16T09:37:20.861Z,23.00
2022-11-16T09:39:48.003Z,23.00
2022-11-16T09:42:28.536Z,22.98
2022-11-16T09:45:12.335Z,22.94
2022-11-16T09:47:48.239Z,22.92
2022-11-16T09:50:35.812Z,22.96
2022-11-16T09:53:16.806Z,22.93
2022-11-16T09:55:48.873Z,22.83
2022-11-16T09:58:22.018Z,22.91
2022-11-16T10:00:56.227Z,22.96
2022-11-16T10:03:25.330Z,22.99
2022-11-16T10:05:59.232Z,22.98
2022-11-16T10:08:39.959Z,22.91
2022-11-16T10:11:42.610Z,22.88
2022-11-16T10:14:26.642Z,22.93
2022-11-16T10:17:00.966Z,23.12
2022-11-16T10:19:42.631Z,23.20
2022-11-16T10:22:26.317Z,23.30
2022-11-16T10:24:57.817Z,23.49
2022-11-16T10:27:43.983Z,23.60
2022-11-16T10:30:14.555Z,23.89
2022-11-16T10:32:49.413Z,23.88
2022-11-16T10:35:22.638Z,23.97
2022-11-16T10:37:51.357Z,23.99
2022-11-16T10:40:22.248Z,24.12
2022-11-16T10:42:59.399Z,24.42
2022-11-16T10:45:35.063Z,24.49
2022-11-16T10:48:14.493Z,24.59
2022-11-16T10:50:46.660Z,24.64
2022-11-16T10:53:14.350Z,24.69
2022-11-16T10:55:41.724Z,24.70
2022-11-16T10:58:08.821Z,24.66
2022-11-16T11:00:38.855Z,24.63
2022-11-16T11:03:07.808Z,24.59
2022-11-16T11:05:35.668Z,24.64
2022-11-16T11:08:05.266Z,24.58
2022-11-16T11:10:34.531Z,24.69
2022-11-16T11:13:17.755Z,24.64
2022-11-16T11:15:45.121Z,24.69
2022-11-16T11:18:26.089Z,24.63
2022-11-16T11:21:05.998Z,24.57
2022-11-16T11:23:41.178Z,24.62
2022-11-16T11:26:24.227Z,24.60
2022-11-16T11:28:51.694Z,24.53
2022-11-16T11:31:24.022Z,24.34
2022-11-16T11:33:55.515Z,24.31
2022-11-16T11:36:24.890Z,24.27
2022-11-16T11:38:57.892Z,24.25
2022-11-16T11:41:25.423Z,24.23
2022-11-16T11:44:01.843Z,24.24
2022-11-16T11:47:06.447Z,24.29
2022-11-16T11:49:33.213Z,24.31
2022-11-16T11:52:05.918Z,24.29
2022-11-16T11:54:39.264Z,24.31
2022-11-16T11:57:14.214Z,24.34
2022-11-16T11:59:41.559Z,24.31
2022-11-16T12:02:25.722Z,24.32
2022-11-16T12:05:28.165Z,24.29
2022-11-16T12:08:13.438Z,24.22
2022-11-16T12:10:48.857Z,24.20
2022-11-16T12:13:34.562Z,24.06
2022-11-16T12:16:11.181Z,24.10
2022-11-16T12:18:58.437Z,24.11
2022-11-16T12:21:39.519Z,24.08
2022-11-16T12:24:24.145Z,24.06
2022-11-16T12:27:02.112Z,24.06
2022-11-16T12:29:43.296Z,24.01
2022-11-16T12:32:31.991Z,24.02
2022-11-16T12:35:21.489Z,23.99
2022-11-16T12:38:02.145Z,23.92
2022-11-16T12:40:41.177Z,23.94
2022-11-16T12:43:18.696Z,23.94
2022-11-16T12:46:03.230Z,23.96
2022-11-16T12:48:45.013Z,23.98
2022-11-16T12:51:28.871Z,23.97
2022-11-16T12:54:20.626Z,23.96
2022-11-16T12:56:58.143Z,23.92
2022-11-16T12:59:45.294Z,23.93
2022-11-16T13:02:23.318Z,23.85
2022-11-16T13:04:56.259Z,23.91
2022-11-16T13:07:27.770Z,23.83
2022-11-16T13:10:02.041Z,23.78
2022-11-16T13:12:31.957Z,23.78
2022-11-16T13:15:02.023Z,23.77
2022-11-16T13:17:33.233Z,23.79
2022-11-16T13:20:20.193Z,23.80
2022-11-16T13:22:56.856Z,23.73
2022-11-16T13:25:33.534Z,23.67
2022-11-16T13:28:10.312Z,23.54
2022-11-16T13:30:45.907Z,23.58
2022-11-16T13:33:27.265Z,23.59
2022-11-16T13:35:54.687Z,23.54
2022-11-16T13:38:49.606Z,23.47
2022-11-16T13:41:30.550Z,23.40
2022-11-16T13:43:58.307Z,23.49
2022-11-16T13:46:55.439Z,23.54
2022-11-16T13:49:30.899Z,23.48
2022-11-16T13:52:11.581Z,23.48
2022-11-16T13:54:51.215Z,23.49
2022-11-16T13:57:25.201Z,23.49
2022-11-16T14:00:08.568Z,23.46
2022-11-16T14:02:37.111Z,23.44
2022-11-16T14:05:05.408Z,23.45
2022-11-16T14:07:42.401Z,23.38
2022-11-16T14:10:11.331Z,23.42
2022-11-16T14:12:57.536Z,23.36
2022-11-16T14:15:29.950Z,23.36
2022-11-16T14:18:00.727Z,23.32
2022-11-16T14:20:39.581Z,23.24
2022-11-16T14:23:16.210Z,23.22
2022-11-16T14:25:50.311Z,23.24
2022-11-16T14:28:28.530Z,23.22
2022-11-16T14:31:06.941Z,23.28
2022-11-16T14:33:37.360Z,23.28
2022-11-16T14:36:07.786Z,23.31
2022-11-16T14:38:37.567Z,23.32
2022-11-16T14:41:06.992Z,23.26
2022-11-16T14:43:41.778Z,23.22
2022-11-16T14:46:20.083Z,23.28
2022-11-16T14:48:48.029Z,23.30
2022-11-16T14:51:19.393Z,23.31
2022-11-16T14:53:50.327Z,23.32
2022-11-16T14:56:18.693Z,23.30
2022-11-16T14:58:54.842Z,23.26
2022-11-16T15:01:25.071Z,23.28
2022-11-16T15:03:56.218Z,23.27
2022-11-16T15:06:25.858Z,23.26
2022-11-16T15:08:56.799Z,23.19
2022-11-16T15:11:27.004Z,23.13
2022-11-16T15:13:55.713Z,23.20
2022-11-16T15:16:22.841Z,23.15
2022-11-16T15:18:57.922Z,23.19
2022-11-16T15:21:25.341Z,23.17
2022-11-16T15:24:15.439Z,23.09
2022-11-16T15:26:39.897Z,23.28
2022-11-16T15:29:16.623Z,23.22
2022-11-16T15:31:44.173Z,23.29
2022-11-16T15:34:12.104Z,23.29
2022-11-16T15:36:40.298Z,23.31
2022-11-16T15:39:12.955Z,23.23
2022-11-16T15:41:40.625Z,23.24
2022-11-16T15:44:14.781Z,23.25
2022-11-16T15:46:46.148Z,23.24
2022-11-16T15:49:24.736Z,23.22
2022-11-16T15:51:51.885Z,23.22
2022-11-16T15:54:23.962Z,23.17
2022-11-16T15:56:54.838Z,23.15
2022-11-16T15:59:26.789Z,23.08
2022-11-16T16:01:56.210Z,23.07
2022-11-16T16:04:24.271Z,22.99
2022-11-16T16:06:52.942Z,23.15
2022-11-16T16:09:24.341Z,22.92
2022-11-16T16:11:52.763Z,23.21
2022-11-16T16:14:28.118Z,23.09
2022-11-16T16:16:58.076Z,23.09
2022-11-16T16:19:33.957Z,23.20
2022-11-16T16:22:02.403Z,23.27
2022-11-16T16:24:43.360Z,23.31
2022-11-16T16:27:15.543Z,23.33
2022-11-16T16:29:42.807Z,23.35
2022-11-16T16:32:20.798Z,23.23
2022-11-16T16:34:47.913Z,23.25
2022-11-16T16:37:15.137Z,23.22
2022-11-16T16:39:42.295Z,23.26
2022-11-16T16:42:11.750Z,23.27
2022-11-16T16:44:38.920Z,23.27
2022-11-16T16:47:06.574Z,23.24
2022-11-16T16:49:35.704Z,23.26
2022-11-16T16:52:03.750Z,23.22
2022-11-16T16:54:30.886Z,23.18
2022-11-16T16:56:58.062Z,23.17
2022-11-16T16:59:25.372Z,23.14
2022-11-16T17:01:52.536Z,23.14
2022-11-16T17:04:19.787Z,23.22
2022-11-16T17:06:50.707Z,23.19
2022-11-16T17:09:17.912Z,23.23
2022-11-16T17:11:46.365Z,23.25
2022-11-16T17:14:13.468Z,23.25
2022-11-16T17:16:40.592Z,23.17
2022-11-16T17:19:07.792Z,23.12
2022-11-16T17:21:34.897Z,23.16
2022-11-16T17:24:03.844Z,23.16
2022-11-16T17:26:30.984Z,23.15
2022-11-16T17:28:58.497Z,23.13
2022-11-16T17:31:26.392Z,23.16
2022-11-16T17:33:53.506Z,23.15
2022-11-16T17:36:20.816Z,23.14
2022-11-16T17:38:47.916Z,23.13
2022-11-16T17:41:18.817Z,23.00
2022-11-16T17:43:46.606Z,23.10
2022-11-16T17:46:15.455Z,23.10
2022-11-16T17:48:44.065Z,23.14
2022-11-16T17:51:13.372Z,23.12
2022-11-16T17:53:41.334Z,23.13
2022-11-16T17:56:10.651Z,23.13
2022-11-16T17:58:39.382Z,23.11
2022-11-16T18:01:06.551Z,23.14
2022-11-16T18:03:35.729Z,23.19
2022-11-16T18:06:04.034Z,23.19
2022-11-16T18:08:31.709Z,23.11
2022-11-16T18:11:03.990Z,23.13
2022-11-16T18:13:31.286Z,23.12
2022-11-16T18:16:04.111Z,23.13
2022-11-16T18:18:31.408Z,23.16
2022-11-16T18:20:59.645Z,23.10
2022-11-16T18:23:26.817Z,23.09
2022-11-16T18:25:54.179Z,23.05
2022-11-16T18:28:21.577Z,22.86
2022-11-16T18:30:48.681Z,23.00
2022-11-16T18:33:17.210Z,23.03
2022-11-16T18:35:44.893Z,23.02
2022-11-16T18:38:11.984Z,22.98
2022-11-16T18:40:39.407Z,22.97
2022-11-16T18:43:06.692Z,22.61
2022-11-16T18:45:33.783Z,22.99
2022-11-16T18:48:01.059Z,22.96
2022-11-16T18:50:29.493Z,23.03
2022-11-16T18:52:56.852Z,23.05
2022-11-16T18:55:24.167Z,23.08
2022-11-16T18:57:51.274Z,23.10
2022-11-16T19:00:19.258Z,23.07
2022-11-16T19:02:46.394Z,23.01
2022-11-16T19:05:13.599Z,23.05
2022-11-16T19:07:42.062Z,22.99
2022-11-16T19:10:09.905Z,23.01
2022-11-16T19:12:37.014Z,22.96
2022-11-16T19:15:04.795Z,22.94
2022-11-16T19:17:31.941Z,22.96
2022-11-16T19:19:59.034Z,22.96
2022-11-16T19:22:26.133Z,22.96
2022-11-16T19:24:54.646Z,22.91
2022-11-16T19:27:21.761Z,22.93
2022-11-16T19:29:48.867Z,22.90
2022-11-16T19:32:16.009Z,22.82
2022-11-16T19:34:43.153Z,22.82
2022-11-16T19:37:10.282Z,22.92
2022-11-16T19:39:37.416Z,22.92
2022-11-16T19:42:05.999Z,22.95
2022-11-16T19:44:33.095Z,22.95
2022-11-16T19:47:00.228Z,22.96
2022-11-16T19:49:27.333Z,23.04
2022-11-16T19:51:54.432Z,23.04
2022-11-16T19:54:21.553Z,23.02
2022-11-16T19:56:54.738Z,22.99
2022-11-16T19:59:23.830Z,22.93
2022-11-16T20:01:50.935Z,22.91
2022-11-16T20:04:18.045Z,22.87
2022-11-16T20:06:45.166Z,22.90
2022-11-16T20:09:12.268Z,22.78
2022-11-16T20:11:40.628Z,22.88
2022-11-16T20:14:09.701Z,22.83
2022-11-16T20:16:40.185Z,22.78
2022-11-16T20:19:09.043Z,22.78
2022-11-16T20:21:38.140Z,22.77
2022-11-16T20:24:07.368Z,22.77
2022-11-16T20:26:36.376Z,22.81
2022-11-16T20:29:04.004Z,22.87
2022-11-16T20:31:32.940Z,22.79
2022-11-16T20:34:03.865Z,22.81
2022-11-16T20:36:32.546Z,22.88
2022-11-16T20:39:00.672Z,22.84
2022-11-16T20:41:29.594Z,22.88
2022-11-16T20:43:58.117Z,22.94
2022-11-16T20:46:26.928Z,22.83
2022-11-16T20:48:54.724Z,22.92
2022-11-16T20:51:23.396Z,22.83
2022-11-16T20:53:51.030Z,22.83
2022-11-16T20:56:19.628Z,22.80
2022-11-16T20:58:47.543Z,22.86
2022-11-16T21:01:16.466Z,22.80
2022-11-16T21:03:44.241Z,22.76
2022-11-16T21:06:12.132Z,22.77
2022-11-16T21:08:41.283Z,22.77
2022-11-16T21:11:12.342Z,22.75
2022-11-16T21:13:39.865Z,22.78
2022-11-16T21:16:09.603Z,22.75
2022-11-16T21:18:37.262Z,22.72
2022-11-16T21:21:06.260Z,22.69
2022-11-16T21:23:35.643Z,22.74
2022-11-16T21:26:06.000Z,22.78
2022-11-16T21:28:33.332Z,22.89
2022-11-16T21:31:02.113Z,22.90
2022-11-16T21:33:29.553Z,22.90
2022-11-16T21:35:56.938Z,22.87
2022-11-16T21:38:25.058Z,22.89
2022-11-16T21:40:52.191Z,22.90
2022-11-16T21:43:20.664Z,22.92
2022-11-16T21:45:48.600Z,22.80
2022-11-16T21:48:15.762Z,22.80
2022-11-16T21:50:43.360Z,22.80
2022-11-16T21:53:10.505Z,22.80
2022-11-16T21:55:37.632Z,22.78
2022-11-16T21:58:04.746Z,22.76
2022-11-16T22:00:33.340Z,22.73
2022-11-16T22:03:00.509Z,22.71
2022-11-16T22:05:27.609Z,22.68
2022-11-16T22:07:54.731Z,22.67
2022-11-16T22:10:22.127Z,22.66
2022-11-16T22:12:49.224Z,22.63
2022-11-16T22:15:16.425Z,22.74
2022-11-16T22:17:45.211Z,22.80
2022-11-16T22:20:12.383Z,22.77
2022-11-16T22:22:39.502Z,22.79
2022-11-16T22:25:07.554Z,22.79
2022-11-16T22:27:47.021Z,22.83
2022-11-16T22:30:22.054Z,22.87
2022-11-16T22:32:50.501Z,22.83
2022-11-16T22:35:17.613Z,22.77
2022-11-16T22:37:44.728Z,22.84
2022-11-16T22:40:17.590Z,22.76
2022-11-16T22:42:45.783Z,22.74
2022-11-16T22:45:12.908Z,22.75
2022-11-16T22:47:40.027Z,22.71
2022-11-16T22:50:09.106Z,22.72
2022-11-16T22:52:36.212Z,22.70
2022-11-16T22:55:03.592Z,22.67
2022-11-16T22:57:30.717Z,22.70
2022-11-16T22:59:57.822Z,22.68
2022-11-16T23:02:24.941Z,22.69
2022-11-16T23:04:52.092Z,22.62
2022-11-16T23:07:20.643Z,22.61
2022-11-16T23:09:47.769Z,22.70
2022-11-16T23:12:15.041Z,22.67
2022-11-16T23:14:42.144Z,22.71
2022-11-16T23:17:09.381Z,22.71
2022-11-16T23:19:36.563Z,22.74
2022-11-16T23:22:04.437Z,22.79
2022-11-16T23:24:32.895Z,22.79
2022-11-16T23:27:02.348Z,22.81
2022-11-16T23:29:29.498Z,22.73
2022-11-16T23:31:56.599Z,22.73
2022-11-16T23:34:23.739Z,22.69
2022-11-16T23:36:50.844Z,22.70
2022-11-16T23:39:18.086Z,22.67
2022-11-16T23:41:46.574Z,22.64
2022-11-16T23:44:13.676Z,22.64
2022-11-16T23:46:41.083Z,22.65
2022-11-16T23:49:08.221Z,22.63
2022-11-16T23:51:35.310Z,22.64
2022-11-16T23:54:02.394Z,22.59
2022-11-16T23:56:29.515Z,22.58
2022-11-16T23:58:58.116Z,22.55
